sensor_id;sensor_type;location;lat;lon;timestamp;temperature;humidity
42019;DHT22;27703;51.980;5.848;2024-02-26T00:02:15;6.90;99.90
42019;DHT22;27703;51.980;5.848;2024-02-26T00:04:40;6.80;99.90
42019;DHT22;27703;51.980;5.848;2024-02-26T00:07:06;6.80;99.90
42019;DHT22;27703;51.980;5.848;2024-02-26T00:09:32;6.80;99.90
42019;DHT22;27703;51.980;5.848;2024-02-26T00:12:01;6.80;99.90
42019;DHT22;27703;51.980;5.848;2024-02-26T00:14:26;6.80;99.90
42019;DHT22;27703;51.980;5.848;2024-02-26T00:16:52;6.80;99.90
42019;DHT22;27703;51.980;5.848;2024-02-26T00:19:17;6.80;99.90
42019;DHT22;27703;51.980;5.848;2024-02-26T00:21:43;6.80;99.90
42019;DHT22;27703;51.980;5.848;2024-02-26T00:24:08;6.80;99.90
42019;DHT22;27703;51.980;5.848;2024-02-26T00:26:34;6.80;99.90
42019;DHT22;27703;51.980;5.848;2024-02-26T00:28:59;6.80;99.90
42019;DHT22;27703;51.980;5.848;2024-02-26T00:31:25;6.80;99.90
42019;DHT22;27703;51.980;5.848;2024-02-26T00:33:50;6.80;99.90
42019;DHT22;27703;51.980;5.848;2024-02-26T00:36:16;6.70;99.90
42019;DHT22;27703;51.980;5.848;2024-02-26T00:38:42;6.70;99.90
42019;DHT22;27703;51.980;5.848;2024-02-26T00:41:10;6.70;99.90
42019;DHT22;27703;51.980;5.848;2024-02-26T00:43:35;6.70;99.90
42019;DHT22;27703;51.980;5.848;2024-02-26T00:46:03;6.70;99.90
42019;DHT22;27703;51.980;5.848;2024-02-26T00:48:29;6.70;99.90
42019;DHT22;27703;51.980;5.848;2024-02-26T00:50:54;6.70;99.90
42019;DHT22;27703;51.980;5.848;2024-02-26T00:53:20;6.70;99.90
42019;DHT22;27703;51.980;5.848;2024-02-26T00:55:45;6.70;99.90
42019;DHT22;27703;51.980;5.848;2024-02-26T00:58:11;6.70;99.90
42019;DHT22;27703;51.980;5.848;2024-02-26T01:00:36;6.70;99.90
42019;DHT22;27703;51.980;5.848;2024-02-26T01:03:02;6.70;99.90
42019;DHT22;27703;51.980;5.848;2024-02-26T01:05:29;6.70;99.90
42019;DHT22;27703;51.980;5.848;2024-02-26T01:07:54;6.70;99.90
42019;DHT22;27703;51.980;5.848;2024-02-26T01:10:20;6.80;99.90
42019;DHT22;27703;51.980;5.848;2024-02-26T01:12:45;6.80;99.90
42019;DHT22;27703;51.980;5.848;2024-02-26T01:15:11;6.70;99.90
42019;DHT22;27703;51.980;5.848;2024-02-26T01:17:37;6.70;99.90
42019;DHT22;27703;51.980;5.848;2024-02-26T01:20:02;6.70;99.90
42019;DHT22;27703;51.980;5.848;2024-02-26T01:22:28;6.70;99.90
42019;DHT22;27703;51.980;5.848;2024-02-26T01:24:53;6.70;99.90
42019;DHT22;27703;51.980;5.848;2024-02-26T01:27:19;6.70;99.90
42019;DHT22;27703;51.980;5.848;2024-02-26T01:29:45;6.60;99.90
42019;DHT22;27703;51.980;5.848;2024-02-26T01:32:10;6.60;99.90
42019;DHT22;27703;51.980;5.848;2024-02-26T01:34:36;6.60;99.90
42019;DHT22;27703;51.980;5.848;2024-02-26T01:37:02;6.60;99.90
42019;DHT22;27703;51.980;5.848;2024-02-26T01:39:28;6.60;99.90
42019;DHT22;27703;51.980;5.848;2024-02-26T01:41:55;6.60;99.90
42019;DHT22;27703;51.980;5.848;2024-02-26T01:44:21;6.60;99.90
42019;DHT22;27703;51.980;5.848;2024-02-26T01:46:48;6.60;99.90
42019;DHT22;27703;51.980;5.848;2024-02-26T01:49:13;6.60;99.90
42019;DHT22;27703;51.980;5.848;2024-02-26T01:51:41;6.60;99.90
42019;DHT22;27703;51.980;5.848;2024-02-26T01:54:08;6.60;99.90
42019;DHT22;27703;51.980;5.848;2024-02-26T01:56:35;6.60;99.90
42019;DHT22;27703;51.980;5.848;2024-02-26T01:59:01;6.60;99.90
42019;DHT22;27703;51.980;5.848;2024-02-26T02:01:29;6.50;99.90
42019;DHT22;27703;51.980;5.848;2024-02-26T02:03:58;6.50;99.90
42019;DHT22;27703;51.980;5.848;2024-02-26T02:06:23;6.60;99.90
42019;DHT22;27703;51.980;5.848;2024-02-26T02:08:49;6.50;99.90
42019;DHT22;27703;51.980;5.848;2024-02-26T02:11:15;6.50;99.90
42019;DHT22;27703;51.980;5.848;2024-02-26T02:13:41;6.50;99.90
42019;DHT22;27703;51.980;5.848;2024-02-26T02:16:07;6.50;99.90
42019;DHT22;27703;51.980;5.848;2024-02-26T02:18:33;6.60;99.90
42019;DHT22;27703;51.980;5.848;2024-02-26T02:21:00;6.50;99.90
42019;DHT22;27703;51.980;5.848;2024-02-26T02:23:26;6.60;99.90
42019;DHT22;27703;51.980;5.848;2024-02-26T02:25:52;6.50;99.90
42019;DHT22;27703;51.980;5.848;2024-02-26T02:28:18;6.60;99.90
42019;DHT22;27703;51.980;5.848;2024-02-26T02:30:44;6.60;99.90
42019;DHT22;27703;51.980;5.848;2024-02-26T02:33:09;6.60;99.90
42019;DHT22;27703;51.980;5.848;2024-02-26T02:35:37;6.60;99.90
42019;DHT22;27703;51.980;5.848;2024-02-26T02:38:03;6.60;99.90
42019;DHT22;27703;51.980;5.848;2024-02-26T02:40:28;6.60;99.90
42019;DHT22;27703;51.980;5.848;2024-02-26T02:42:54;6.60;99.90
42019;DHT22;27703;51.980;5.848;2024-02-26T02:45:19;6.60;99.90
42019;DHT22;27703;51.980;5.848;2024-02-26T02:47:45;6.60;99.90
42019;DHT22;27703;51.980;5.848;2024-02-26T02:50:10;6.70;99.90
42019;DHT22;27703;51.980;5.848;2024-02-26T02:52:36;6.60;99.90
42019;DHT22;27703;51.980;5.848;2024-02-26T02:55:02;6.60;99.90
42019;DHT22;27703;51.980;5.848;2024-02-26T02:57:28;6.60;99.90
42019;DHT22;27703;51.980;5.848;2024-02-26T02:59:53;6.60;99.90
42019;DHT22;27703;51.980;5.848;2024-02-26T03:02:19;6.60;99.90
42019;DHT22;27703;51.980;5.848;2024-02-26T03:04:44;6.60;99.90
42019;DHT22;27703;51.980;5.848;2024-02-26T03:07:10;6.60;99.90
42019;DHT22;27703;51.980;5.848;2024-02-26T03:09:35;6.60;99.90
42019;DHT22;27703;51.980;5.848;2024-02-26T03:12:01;6.60;99.90
42019;DHT22;27703;51.980;5.848;2024-02-26T03:14:27;6.60;99.90
42019;DHT22;27703;51.980;5.848;2024-02-26T03:16:55;6.60;99.90
42019;DHT22;27703;51.980;5.848;2024-02-26T03:19:21;6.60;99.90
42019;DHT22;27703;51.980;5.848;2024-02-26T03:21:47;6.70;99.90
42019;DHT22;27703;51.980;5.848;2024-02-26T03:24:12;6.70;99.90
42019;DHT22;27703;51.980;5.848;2024-02-26T03:26:38;6.70;99.90
42019;DHT22;27703;51.980;5.848;2024-02-26T03:29:04;6.70;99.90
42019;DHT22;27703;51.980;5.848;2024-02-26T03:31:30;6.70;99.90
42019;DHT22;27703;51.980;5.848;2024-02-26T03:33:56;6.70;99.90
42019;DHT22;27703;51.980;5.848;2024-02-26T03:36:21;6.70;99.90
42019;DHT22;27703;51.980;5.848;2024-02-26T03:38:47;6.70;99.90
42019;DHT22;27703;51.980;5.848;2024-02-26T03:41:13;6.60;99.90
42019;DHT22;27703;51.980;5.848;2024-02-26T03:43:39;6.70;99.90
42019;DHT22;27703;51.980;5.848;2024-02-26T03:46:07;6.60;99.90
42019;DHT22;27703;51.980;5.848;2024-02-26T03:48:33;6.70;99.90
42019;DHT22;27703;51.980;5.848;2024-02-26T03:50:59;6.60;99.90
42019;DHT22;27703;51.980;5.848;2024-02-26T03:53:25;6.60;99.90
42019;DHT22;27703;51.980;5.848;2024-02-26T03:55:51;6.60;99.90
42019;DHT22;27703;51.980;5.848;2024-02-26T03:58:17;6.60;99.90
42019;DHT22;27703;51.980;5.848;2024-02-26T04:00:43;6.50;99.90
42019;DHT22;27703;51.980;5.848;2024-02-26T04:03:09;6.60;99.90
42019;DHT22;27703;51.980;5.848;2024-02-26T04:05:35;6.50;99.90
42019;DHT22;27703;51.980;5.848;2024-02-26T04:08:00;6.50;99.90
42019;DHT22;27703;51.980;5.848;2024-02-26T04:10:26;6.50;99.90
42019;DHT22;27703;51.980;5.848;2024-02-26T04:12:51;6.50;99.90
42019;DHT22;27703;51.980;5.848;2024-02-26T04:15:17;6.40;99.90
42019;DHT22;27703;51.980;5.848;2024-02-26T04:17:43;6.50;99.90
42019;DHT22;27703;51.980;5.848;2024-02-26T04:20:13;6.40;99.90
42019;DHT22;27703;51.980;5.848;2024-02-26T04:22:39;6.40;99.90
42019;DHT22;27703;51.980;5.848;2024-02-26T04:25:05;6.40;99.90
42019;DHT22;27703;51.980;5.848;2024-02-26T04:27:30;6.40;99.90
42019;DHT22;27703;51.980;5.848;2024-02-26T04:29:56;6.30;99.90
42019;DHT22;27703;51.980;5.848;2024-02-26T04:32:21;6.40;99.90
42019;DHT22;27703;51.980;5.848;2024-02-26T04:34:47;6.30;99.90
42019;DHT22;27703;51.980;5.848;2024-02-26T04:37:13;6.30;99.90
42019;DHT22;27703;51.980;5.848;2024-02-26T04:39:38;6.30;99.90
42019;DHT22;27703;51.980;5.848;2024-02-26T04:42:04;6.30;99.90
42019;DHT22;27703;51.980;5.848;2024-02-26T04:44:30;6.20;99.90
42019;DHT22;27703;51.980;5.848;2024-02-26T04:46:56;6.30;99.90
42019;DHT22;27703;51.980;5.848;2024-02-26T04:49:22;6.20;99.90
42019;DHT22;27703;51.980;5.848;2024-02-26T04:51:47;6.20;99.90
42019;DHT22;27703;51.980;5.848;2024-02-26T04:54:13;6.20;99.90
42019;DHT22;27703;51.980;5.848;2024-02-26T04:56:39;6.20;99.90
42019;DHT22;27703;51.980;5.848;2024-02-26T04:59:05;6.20;99.90
42019;DHT22;27703;51.980;5.848;2024-02-26T05:01:30;6.20;99.90
42019;DHT22;27703;51.980;5.848;2024-02-26T05:03:56;6.20;99.90
42019;DHT22;27703;51.980;5.848;2024-02-26T05:06:21;6.20;99.90
42019;DHT22;27703;51.980;5.848;2024-02-26T05:08:47;6.20;99.90
42019;DHT22;27703;51.980;5.848;2024-02-26T05:11:12;6.20;99.90
42019;DHT22;27703;51.980;5.848;2024-02-26T05:13:38;6.10;99.90
42019;DHT22;27703;51.980;5.848;2024-02-26T05:16:04;6.20;99.90
42019;DHT22;27703;51.980;5.848;2024-02-26T05:18:29;6.10;99.90
42019;DHT22;27703;51.980;5.848;2024-02-26T05:20:55;6.10;99.90
42019;DHT22;27703;51.980;5.848;2024-02-26T05:23:20;6.10;99.90
42019;DHT22;27703;51.980;5.848;2024-02-26T05:25:46;6.10;99.90
42019;DHT22;27703;51.980;5.848;2024-02-26T05:28:13;6.10;99.90
42019;DHT22;27703;51.980;5.848;2024-02-26T05:30:41;6.10;99.90
42019;DHT22;27703;51.980;5.848;2024-02-26T05:33:06;6.10;99.90
42019;DHT22;27703;51.980;5.848;2024-02-26T05:35:32;6.10;99.90
42019;DHT22;27703;51.980;5.848;2024-02-26T05:37:57;6.10;99.90
42019;DHT22;27703;51.980;5.848;2024-02-26T05:40:23;6.00;99.90
42019;DHT22;27703;51.980;5.848;2024-02-26T05:42:48;6.00;99.90
42019;DHT22;27703;51.980;5.848;2024-02-26T05:45:14;6.10;99.90
42019;DHT22;27703;51.980;5.848;2024-02-26T05:47:40;6.00;99.90
42019;DHT22;27703;51.980;5.848;2024-02-26T05:50:09;6.00;99.90
42019;DHT22;27703;51.980;5.848;2024-02-26T05:52:39;6.00;99.90
42019;DHT22;27703;51.980;5.848;2024-02-26T05:55:05;6.00;99.90
42019;DHT22;27703;51.980;5.848;2024-02-26T05:57:32;6.00;99.90
42019;DHT22;27703;51.980;5.848;2024-02-26T05:59:57;6.00;99.90
42019;DHT22;27703;51.980;5.848;2024-02-26T06:02:26;6.00;99.90
42019;DHT22;27703;51.980;5.848;2024-02-26T06:04:51;6.00;99.90
42019;DHT22;27703;51.980;5.848;2024-02-26T06:07:17;6.00;99.90
42019;DHT22;27703;51.980;5.848;2024-02-26T06:09:42;6.00;99.90
42019;DHT22;27703;51.980;5.848;2024-02-26T06:12:08;5.90;99.90
42019;DHT22;27703;51.980;5.848;2024-02-26T06:14:34;5.90;99.90
42019;DHT22;27703;51.980;5.848;2024-02-26T06:16:59;5.90;99.90
42019;DHT22;27703;51.980;5.848;2024-02-26T06:19:25;5.90;99.90
42019;DHT22;27703;51.980;5.848;2024-02-26T06:21:50;5.90;99.90
42019;DHT22;27703;51.980;5.848;2024-02-26T06:24:16;5.90;99.90
42019;DHT22;27703;51.980;5.848;2024-02-26T06:26:42;5.90;99.90
42019;DHT22;27703;51.980;5.848;2024-02-26T06:29:07;6.00;99.90
42019;DHT22;27703;51.980;5.848;2024-02-26T06:31:33;5.90;99.90
42019;DHT22;27703;51.980;5.848;2024-02-26T06:33:58;6.00;99.90
42019;DHT22;27703;51.980;5.848;2024-02-26T06:36:24;5.90;99.90
42019;DHT22;27703;51.980;5.848;2024-02-26T06:38:49;6.00;99.90
42019;DHT22;27703;51.980;5.848;2024-02-26T06:41:15;5.90;99.90
42019;DHT22;27703;51.980;5.848;2024-02-26T06:43:40;6.00;99.90
42019;DHT22;27703;51.980;5.848;2024-02-26T06:46:06;5.90;99.90
42019;DHT22;27703;51.980;5.848;2024-02-26T06:48:32;5.90;99.90
42019;DHT22;27703;51.980;5.848;2024-02-26T06:50:58;6.00;99.90
42019;DHT22;27703;51.980;5.848;2024-02-26T06:53:23;5.90;99.90
42019;DHT22;27703;51.980;5.848;2024-02-26T06:55:49;5.90;99.90
42019;DHT22;27703;51.980;5.848;2024-02-26T06:58:15;5.90;99.90
42019;DHT22;27703;51.980;5.848;2024-02-26T07:00:41;5.90;99.90
42019;DHT22;27703;51.980;5.848;2024-02-26T07:03:06;5.90;99.90
42019;DHT22;27703;51.980;5.848;2024-02-26T07:05:32;5.90;99.90
42019;DHT22;27703;51.980;5.848;2024-02-26T07:07:57;5.90;99.90
42019;DHT22;27703;51.980;5.848;2024-02-26T07:10:23;5.90;99.90
42019;DHT22;27703;51.980;5.848;2024-02-26T07:12:48;5.90;99.90
42019;DHT22;27703;51.980;5.848;2024-02-26T07:15:14;5.90;99.90
42019;DHT22;27703;51.980;5.848;2024-02-26T07:17:40;5.90;99.90
42019;DHT22;27703;51.980;5.848;2024-02-26T07:20:08;5.90;99.90
42019;DHT22;27703;51.980;5.848;2024-02-26T07:22:34;5.90;99.90
42019;DHT22;27703;51.980;5.848;2024-02-26T07:24:59;5.90;99.90
42019;DHT22;27703;51.980;5.848;2024-02-26T07:27:25;5.90;99.90
42019;DHT22;27703;51.980;5.848;2024-02-26T07:29:51;5.90;99.90
42019;DHT22;27703;51.980;5.848;2024-02-26T07:32:16;5.90;99.90
42019;DHT22;27703;51.980;5.848;2024-02-26T07:34:42;5.90;99.90
42019;DHT22;27703;51.980;5.848;2024-02-26T07:37:10;5.90;99.90
42019;DHT22;27703;51.980;5.848;2024-02-26T07:39:36;5.90;99.90
42019;DHT22;27703;51.980;5.848;2024-02-26T07:42:02;5.90;99.90
42019;DHT22;27703;51.980;5.848;2024-02-26T07:44:27;5.90;99.90
42019;DHT22;27703;51.980;5.848;2024-02-26T07:46:53;5.90;99.90
42019;DHT22;27703;51.980;5.848;2024-02-26T07:49:18;5.90;99.90
42019;DHT22;27703;51.980;5.848;2024-02-26T07:51:44;5.90;99.90
42019;DHT22;27703;51.980;5.848;2024-02-26T07:54:09;5.90;99.90
42019;DHT22;27703;51.980;5.848;2024-02-26T07:56:35;5.90;99.90
42019;DHT22;27703;51.980;5.848;2024-02-26T07:59:00;5.90;99.90
42019;DHT22;27703;51.980;5.848;2024-02-26T08:01:26;5.90;99.90
42019;DHT22;27703;51.980;5.848;2024-02-26T08:03:53;5.90;99.90
42019;DHT22;27703;51.980;5.848;2024-02-26T08:06:19;5.90;99.90
42019;DHT22;27703;51.980;5.848;2024-02-26T08:08:44;5.90;99.90
42019;DHT22;27703;51.980;5.848;2024-02-26T08:11:10;5.90;99.90
42019;DHT22;27703;51.980;5.848;2024-02-26T08:13:35;5.90;99.90
42019;DHT22;27703;51.980;5.848;2024-02-26T08:16:01;5.90;99.90
42019;DHT22;27703;51.980;5.848;2024-02-26T08:18:27;5.90;99.90
42019;DHT22;27703;51.980;5.848;2024-02-26T08:20:52;5.90;99.90
42019;DHT22;27703;51.980;5.848;2024-02-26T08:23:18;5.90;99.90
42019;DHT22;27703;51.980;5.848;2024-02-26T08:25:43;5.90;99.90
42019;DHT22;27703;51.980;5.848;2024-02-26T08:28:09;6.00;99.90
42019;DHT22;27703;51.980;5.848;2024-02-26T08:30:38;6.00;99.90
42019;DHT22;27703;51.980;5.848;2024-02-26T08:33:04;6.00;99.90
42019;DHT22;27703;51.980;5.848;2024-02-26T08:35:29;6.00;99.90
42019;DHT22;27703;51.980;5.848;2024-02-26T08:37:55;5.90;99.90
42019;DHT22;27703;51.980;5.848;2024-02-26T08:40:20;5.90;99.90
42019;DHT22;27703;51.980;5.848;2024-02-26T08:42:46;6.00;99.90
42019;DHT22;27703;51.980;5.848;2024-02-26T08:45:11;5.90;99.90
42019;DHT22;27703;51.980;5.848;2024-02-26T08:47:38;5.90;99.90
42019;DHT22;27703;51.980;5.848;2024-02-26T08:50:04;5.90;99.90
42019;DHT22;27703;51.980;5.848;2024-02-26T08:52:30;6.00;99.90
42019;DHT22;27703;51.980;5.848;2024-02-26T08:54:55;5.90;99.90
42019;DHT22;27703;51.980;5.848;2024-02-26T08:57:21;5.90;99.90
42019;DHT22;27703;51.980;5.848;2024-02-26T08:59:46;5.90;99.90
42019;DHT22;27703;51.980;5.848;2024-02-26T09:02:12;6.00;99.90
42019;DHT22;27703;51.980;5.848;2024-02-26T09:04:37;5.90;99.90
42019;DHT22;27703;51.980;5.848;2024-02-26T09:07:05;6.00;99.90
42019;DHT22;27703;51.980;5.848;2024-02-26T09:09:31;6.00;99.90
42019;DHT22;27703;51.980;5.848;2024-02-26T09:11:57;6.00;99.90
42019;DHT22;27703;51.980;5.848;2024-02-26T09:14:22;6.00;99.90
42019;DHT22;27703;51.980;5.848;2024-02-26T09:16:48;6.00;99.90
42019;DHT22;27703;51.980;5.848;2024-02-26T09:19:14;6.00;99.90
42019;DHT22;27703;51.980;5.848;2024-02-26T09:21:44;6.00;99.90
42019;DHT22;27703;51.980;5.848;2024-02-26T09:24:13;6.10;99.90
42019;DHT22;27703;51.980;5.848;2024-02-26T09:26:38;6.10;99.90
42019;DHT22;27703;51.980;5.848;2024-02-26T09:29:04;6.00;99.90
42019;DHT22;27703;51.980;5.848;2024-02-26T09:31:30;6.10;99.90
42019;DHT22;27703;51.980;5.848;2024-02-26T09:33:55;6.10;99.90
42019;DHT22;27703;51.980;5.848;2024-02-26T09:36:21;6.10;99.90
42019;DHT22;27703;51.980;5.848;2024-02-26T09:38:47;6.10;99.90
42019;DHT22;27703;51.980;5.848;2024-02-26T09:41:14;6.20;99.90
42019;DHT22;27703;51.980;5.848;2024-02-26T09:43:43;6.20;99.90
42019;DHT22;27703;51.980;5.848;2024-02-26T09:46:11;6.20;99.90
42019;DHT22;27703;51.980;5.848;2024-02-26T09:48:37;6.20;99.90
42019;DHT22;27703;51.980;5.848;2024-02-26T09:51:04;6.20;99.90
42019;DHT22;27703;51.980;5.848;2024-02-26T09:53:30;6.20;99.90
42019;DHT22;27703;51.980;5.848;2024-02-26T09:55:57;6.20;99.90
42019;DHT22;27703;51.980;5.848;2024-02-26T09:58:24;6.20;99.90
42019;DHT22;27703;51.980;5.848;2024-02-26T10:00:56;6.20;99.90
42019;DHT22;27703;51.980;5.848;2024-02-26T10:03:30;6.20;99.90
42019;DHT22;27703;51.980;5.848;2024-02-26T10:05:56;6.20;99.90
42019;DHT22;27703;51.980;5.848;2024-02-26T10:08:23;6.20;99.90
42019;DHT22;27703;51.980;5.848;2024-02-26T10:10:50;6.20;99.90
42019;DHT22;27703;51.980;5.848;2024-02-26T10:13:16;6.20;99.90
42019;DHT22;27703;51.980;5.848;2024-02-26T10:15:41;6.20;99.90
42019;DHT22;27703;51.980;5.848;2024-02-26T10:18:07;6.20;99.90
42019;DHT22;27703;51.980;5.848;2024-02-26T10:20:33;6.20;99.90
42019;DHT22;27703;51.980;5.848;2024-02-26T10:23:01;6.20;99.90
42019;DHT22;27703;51.980;5.848;2024-02-26T10:25:27;6.20;99.90
42019;DHT22;27703;51.980;5.848;2024-02-26T10:27:53;6.20;99.90
42019;DHT22;27703;51.980;5.848;2024-02-26T10:30:20;6.20;99.90
42019;DHT22;27703;51.980;5.848;2024-02-26T10:32:51;6.20;99.90
42019;DHT22;27703;51.980;5.848;2024-02-26T10:35:17;6.20;99.90
42019;DHT22;27703;51.980;5.848;2024-02-26T10:37:43;6.20;99.90
42019;DHT22;27703;51.980;5.848;2024-02-26T10:40:10;6.30;99.90
42019;DHT22;27703;51.980;5.848;2024-02-26T10:42:36;6.30;99.90
42019;DHT22;27703;51.980;5.848;2024-02-26T10:45:04;6.30;99.90
42019;DHT22;27703;51.980;5.848;2024-02-26T10:47:30;6.30;99.90
42019;DHT22;27703;51.980;5.848;2024-02-26T10:49:57;6.20;99.90
42019;DHT22;27703;51.980;5.848;2024-02-26T10:52:23;6.30;99.90
42019;DHT22;27703;51.980;5.848;2024-02-26T10:54:56;6.30;99.90
42019;DHT22;27703;51.980;5.848;2024-02-26T10:57:22;6.30;99.90
42019;DHT22;27703;51.980;5.848;2024-02-26T10:59:51;6.30;99.90
42019;DHT22;27703;51.980;5.848;2024-02-26T11:02:17;6.30;99.90
42019;DHT22;27703;51.980;5.848;2024-02-26T11:04:43;6.30;99.90
42019;DHT22;27703;51.980;5.848;2024-02-26T11:07:09;6.30;99.90
42019;DHT22;27703;51.980;5.848;2024-02-26T11:09:36;6.40;99.90
42019;DHT22;27703;51.980;5.848;2024-02-26T11:12:08;6.40;99.90
42019;DHT22;27703;51.980;5.848;2024-02-26T11:14:36;6.40;99.90
42019;DHT22;27703;51.980;5.848;2024-02-26T11:17:04;6.40;99.90
42019;DHT22;27703;51.980;5.848;2024-02-26T11:19:31;6.40;99.90
42019;DHT22;27703;51.980;5.848;2024-02-26T11:22:00;6.30;99.90
42019;DHT22;27703;51.980;5.848;2024-02-26T11:24:27;6.40;99.90
42019;DHT22;27703;51.980;5.848;2024-02-26T11:26:55;6.40;99.90
42019;DHT22;27703;51.980;5.848;2024-02-26T11:29:33;6.40;99.90
42019;DHT22;27703;51.980;5.848;2024-02-26T11:32:00;6.40;99.90
42019;DHT22;27703;51.980;5.848;2024-02-26T11:34:26;6.40;99.90
42019;DHT22;27703;51.980;5.848;2024-02-26T11:36:53;6.40;99.90
42019;DHT22;27703;51.980;5.848;2024-02-26T11:39:19;6.40;99.90
42019;DHT22;27703;51.980;5.848;2024-02-26T11:41:45;6.40;99.90
42019;DHT22;27703;51.980;5.848;2024-02-26T11:44:11;6.50;99.90
42019;DHT22;27703;51.980;5.848;2024-02-26T11:46:41;6.40;99.90
42019;DHT22;27703;51.980;5.848;2024-02-26T11:51:52;6.50;99.90
42019;DHT22;27703;51.980;5.848;2024-02-26T11:57:20;6.50;99.90
42019;DHT22;27703;51.980;5.848;2024-02-26T11:59:47;6.40;99.90
42019;DHT22;27703;51.980;5.848;2024-02-26T12:02:40;6.50;99.90
42019;DHT22;27703;51.980;5.848;2024-02-26T12:05:20;6.50;99.90
42019;DHT22;27703;51.980;5.848;2024-02-26T12:07:47;6.50;99.90
42019;DHT22;27703;51.980;5.848;2024-02-26T12:10:15;6.50;99.90
42019;DHT22;27703;51.980;5.848;2024-02-26T12:12:41;6.50;99.90
42019;DHT22;27703;51.980;5.848;2024-02-26T12:15:08;6.50;99.90
42019;DHT22;27703;51.980;5.848;2024-02-26T12:17:34;6.50;99.90
42019;DHT22;27703;51.980;5.848;2024-02-26T12:20:11;6.50;99.90
42019;DHT22;27703;51.980;5.848;2024-02-26T12:22:40;6.50;99.90
42019;DHT22;27703;51.980;5.848;2024-02-26T12:25:08;6.50;99.90
42019;DHT22;27703;51.980;5.848;2024-02-26T12:27:34;6.50;99.90
42019;DHT22;27703;51.980;5.848;2024-02-26T12:30:01;6.50;99.90
42019;DHT22;27703;51.980;5.848;2024-02-26T12:32:26;6.50;99.90
42019;DHT22;27703;51.980;5.848;2024-02-26T12:34:52;6.50;99.90
42019;DHT22;27703;51.980;5.848;2024-02-26T12:37:17;6.60;99.90
42019;DHT22;27703;51.980;5.848;2024-02-26T12:39:43;6.60;99.90
42019;DHT22;27703;51.980;5.848;2024-02-26T12:42:09;6.60;99.90
42019;DHT22;27703;51.980;5.848;2024-02-26T12:44:35;6.60;99.90
42019;DHT22;27703;51.980;5.848;2024-02-26T12:47:01;6.60;99.90
42019;DHT22;27703;51.980;5.848;2024-02-26T12:49:30;6.60;99.90
42019;DHT22;27703;51.980;5.848;2024-02-26T12:51:55;6.60;99.90
42019;DHT22;27703;51.980;5.848;2024-02-26T12:54:28;6.60;99.90
42019;DHT22;27703;51.980;5.848;2024-02-26T12:56:54;6.60;99.90
42019;DHT22;27703;51.980;5.848;2024-02-26T12:59:20;6.70;99.90
42019;DHT22;27703;51.980;5.848;2024-02-26T13:01:45;6.70;99.90
42019;DHT22;27703;51.980;5.848;2024-02-26T13:04:11;6.70;99.90
42019;DHT22;27703;51.980;5.848;2024-02-26T13:06:37;6.70;99.90
42019;DHT22;27703;51.980;5.848;2024-02-26T13:09:03;6.70;99.90
42019;DHT22;27703;51.980;5.848;2024-02-26T13:11:29;6.70;99.90
42019;DHT22;27703;51.980;5.848;2024-02-26T13:13:56;6.70;99.90
42019;DHT22;27703;51.980;5.848;2024-02-26T13:16:24;6.70;99.90
42019;DHT22;27703;51.980;5.848;2024-02-26T13:18:50;6.70;99.90
42019;DHT22;27703;51.980;5.848;2024-02-26T13:21:16;6.80;99.90
42019;DHT22;27703;51.980;5.848;2024-02-26T13:23:43;6.80;99.90
42019;DHT22;27703;51.980;5.848;2024-02-26T13:26:13;6.80;99.90
42019;DHT22;27703;51.980;5.848;2024-02-26T13:28:39;6.80;99.90
42019;DHT22;27703;51.980;5.848;2024-02-26T13:31:05;6.80;99.90
42019;DHT22;27703;51.980;5.848;2024-02-26T13:33:33;6.80;99.90
42019;DHT22;27703;51.980;5.848;2024-02-26T13:35:59;6.90;99.90
42019;DHT22;27703;51.980;5.848;2024-02-26T13:38:26;6.90;99.90
42019;DHT22;27703;51.980;5.848;2024-02-26T13:40:52;6.90;99.90
42019;DHT22;27703;51.980;5.848;2024-02-26T13:43:18;6.90;99.90
42019;DHT22;27703;51.980;5.848;2024-02-26T13:45:44;6.90;99.90
42019;DHT22;27703;51.980;5.848;2024-02-26T13:48:11;7.00;99.90
42019;DHT22;27703;51.980;5.848;2024-02-26T13:50:37;7.00;99.90
42019;DHT22;27703;51.980;5.848;2024-02-26T13:53:03;7.00;99.90
42019;DHT22;27703;51.980;5.848;2024-02-26T13:55:30;6.90;99.90
42019;DHT22;27703;51.980;5.848;2024-02-26T13:57:58;6.90;99.90
42019;DHT22;27703;51.980;5.848;2024-02-26T14:00:26;7.00;99.90
42019;DHT22;27703;51.980;5.848;2024-02-26T14:02:52;7.00;99.90
42019;DHT22;27703;51.980;5.848;2024-02-26T14:05:18;7.00;99.90
42019;DHT22;27703;51.980;5.848;2024-02-26T14:07:43;7.00;99.90
42019;DHT22;27703;51.980;5.848;2024-02-26T14:10:12;7.00;99.90
42019;DHT22;27703;51.980;5.848;2024-02-26T14:12:37;7.00;99.90
42019;DHT22;27703;51.980;5.848;2024-02-26T14:15:05;7.00;99.90
42019;DHT22;27703;51.980;5.848;2024-02-26T14:17:31;7.00;99.90
42019;DHT22;27703;51.980;5.848;2024-02-26T14:19:56;7.00;99.90
42019;DHT22;27703;51.980;5.848;2024-02-26T14:22:22;7.00;99.90
42019;DHT22;27703;51.980;5.848;2024-02-26T14:24:47;7.00;99.90
42019;DHT22;27703;51.980;5.848;2024-02-26T14:27:13;7.00;99.90
42019;DHT22;27703;51.980;5.848;2024-02-26T14:29:45;7.00;99.90
42019;DHT22;27703;51.980;5.848;2024-02-26T14:32:11;7.00;99.90
42019;DHT22;27703;51.980;5.848;2024-02-26T14:34:37;7.10;99.90
42019;DHT22;27703;51.980;5.848;2024-02-26T14:37:02;7.10;99.90
42019;DHT22;27703;51.980;5.848;2024-02-26T14:39:28;7.10;99.90
42019;DHT22;27703;51.980;5.848;2024-02-26T14:41:54;7.10;99.90
42019;DHT22;27703;51.980;5.848;2024-02-26T14:44:20;7.10;99.90
42019;DHT22;27703;51.980;5.848;2024-02-26T14:46:46;7.20;99.90
42019;DHT22;27703;51.980;5.848;2024-02-26T14:49:11;7.20;99.90
42019;DHT22;27703;51.980;5.848;2024-02-26T14:51:38;7.20;99.90
42019;DHT22;27703;51.980;5.848;2024-02-26T14:54:03;7.20;99.90
42019;DHT22;27703;51.980;5.848;2024-02-26T14:56:29;7.20;99.90
42019;DHT22;27703;51.980;5.848;2024-02-26T14:58:54;7.20;99.90
42019;DHT22;27703;51.980;5.848;2024-02-26T15:01:20;7.20;99.90
42019;DHT22;27703;51.980;5.848;2024-02-26T15:03:46;7.20;99.90
42019;DHT22;27703;51.980;5.848;2024-02-26T15:06:11;7.20;99.90
42019;DHT22;27703;51.980;5.848;2024-02-26T15:08:37;7.10;99.90
42019;DHT22;27703;51.980;5.848;2024-02-26T15:11:03;7.10;99.90
42019;DHT22;27703;51.980;5.848;2024-02-26T15:13:29;7.10;99.90
42019;DHT22;27703;51.980;5.848;2024-02-26T15:15:54;7.10;99.90
42019;DHT22;27703;51.980;5.848;2024-02-26T15:18:20;7.10;99.90
42019;DHT22;27703;51.980;5.848;2024-02-26T15:20:45;7.00;99.90
42019;DHT22;27703;51.980;5.848;2024-02-26T15:23:13;7.00;99.90
42019;DHT22;27703;51.980;5.848;2024-02-26T15:25:39;7.00;99.90
42019;DHT22;27703;51.980;5.848;2024-02-26T15:28:06;6.90;99.90
42019;DHT22;27703;51.980;5.848;2024-02-26T15:30:32;6.90;99.90
42019;DHT22;27703;51.980;5.848;2024-02-26T15:32:58;6.80;99.90
42019;DHT22;27703;51.980;5.848;2024-02-26T15:35:25;6.80;99.90
42019;DHT22;27703;51.980;5.848;2024-02-26T15:37:51;6.80;99.90
42019;DHT22;27703;51.980;5.848;2024-02-26T15:40:16;6.80;99.90
42019;DHT22;27703;51.980;5.848;2024-02-26T15:42:42;6.80;99.90
42019;DHT22;27703;51.980;5.848;2024-02-26T15:45:08;6.80;99.90